AAL110 SKCG-SKBO
Flight info
| Callsign | AAL110 |
|---|---|
| Flight time | N/A |
| Altitude | 33000 |
| Route | ILMIK2A AKPEK UQ121 ISVAT ISVAT5E |
| Aircraft | B738/M-SDE2E3FGHIRWXY/LB1 |
Departure
| Time | 2026-04-20 01:04 |
|---|---|
| Airport | Rafael Nuñez International Airport (SKCG) |
Arrival
| Time | N/A |
|---|---|
| Airport | El Dorado International Airport (SKBO) |
| Time | Latitude | Longitude | Altitude | Speed | Heading |
|---|---|---|---|---|---|
| 2026-04-19 23:48 | 10.44702 | -75.51538 | 26 ft | 0 kts | 271° |
| 2026-04-20 00:48 | 10.44702 | -75.51527 | 26 ft | 1 kts | 270° |
| 2026-04-20 00:48 | 10.44702 | -75.51517 | 26 ft | 2 kts | 260° |
| 2026-04-20 00:48 | 10.44707 | -75.51503 | 26 ft | 2 kts | 233° |
| 2026-04-20 00:48 | 10.44718 | -75.51492 | 25 ft | 2 kts | 209° |
| 2026-04-20 00:49 | 10.44732 | -75.51487 | 25 ft | 1 kts | 186° |
| 2026-04-20 00:49 | 10.44738 | -75.51487 | 25 ft | 0 kts | 178° |
| 2026-04-20 00:49 | 10.44741 | -75.51487 | 25 ft | 0 kts | 180° |
| 2026-04-20 00:53 | 10.44737 | -75.51487 | 25 ft | 1 kts | 180° |
| 2026-04-20 00:53 | 10.44717 | -75.51489 | 25 ft | 2 kts | 183° |
| 2026-04-20 00:53 | 10.44698 | -75.51488 | 25 ft | 2 kts | 171° |
| 2026-04-20 00:53 | 10.44654 | -75.51466 | 25 ft | 10 kts | 137° |
| 2026-04-20 00:54 | 10.44637 | -75.51400 | 24 ft | 10 kts | 77° |
| 2026-04-20 00:54 | 10.44645 | -75.51331 | 22 ft | 10 kts | 100° |
| 2026-04-20 00:54 | 10.44565 | -75.51275 | 21 ft | 18 kts | 179° |
| 2026-04-20 00:54 | 10.44432 | -75.51281 | 22 ft | 21 kts | 181° |
| 2026-04-20 00:55 | 10.44258 | -75.51288 | 22 ft | 26 kts | 183° |
| 2026-04-20 00:55 | 10.44079 | -75.51296 | 23 ft | 25 kts | 179° |
| 2026-04-20 00:55 | 10.43907 | -75.51296 | 23 ft | 24 kts | 185° |
| 2026-04-20 00:55 | 10.43741 | -75.51308 | 21 ft | 23 kts | 182° |
| 2026-04-20 00:56 | 10.43575 | -75.51316 | 19 ft | 23 kts | 182° |
| 2026-04-20 00:56 | 10.43412 | -75.51322 | 19 ft | 22 kts | 182° |
| 2026-04-20 00:56 | 10.43257 | -75.51327 | 19 ft | 21 kts | 169° |
| 2026-04-20 00:56 | 10.43147 | -75.51241 | 19 ft | 18 kts | 145° |
| 2026-04-20 00:57 | 10.43074 | -75.51247 | 19 ft | 1 kts | 227° |
| 2026-04-20 00:57 | 10.43070 | -75.51252 | 19 ft | 0 kts | 227° |
| 2026-04-20 00:58 | 10.43070 | -75.51253 | 19 ft | 0 kts | 227° |
| 2026-04-20 00:59 | 10.43059 | -75.51289 | 18 ft | 10 kts | 266° |
| 2026-04-20 00:59 | 10.43099 | -75.51333 | 19 ft | 8 kts | 354° |
| 2026-04-20 00:59 | 10.43118 | -75.51333 | 19 ft | 0 kts | 359° |
| 2026-04-20 00:59 | 10.43124 | -75.51333 | 19 ft | 1 kts | 359° |
| 2026-04-20 01:00 | 10.43134 | -75.51333 | 19 ft | 1 kts | 359° |
| 2026-04-20 01:00 | 10.43146 | -75.51333 | 19 ft | 1 kts | 359° |
| 2026-04-20 01:00 | 10.43160 | -75.51333 | 19 ft | 1 kts | 359° |
| 2026-04-20 01:00 | 10.43167 | -75.51333 | 19 ft | 0 kts | 359° |
| 2026-04-20 01:02 | 10.43174 | -75.51333 | 19 ft | 1 kts | 360° |
| 2026-04-20 01:02 | 10.43179 | -75.51334 | 19 ft | 0 kts | 360° |
| 2026-04-20 01:03 | 10.43180 | -75.51334 | 19 ft | 0 kts | 360° |
| 2026-04-20 01:03 | 10.43245 | -75.51333 | 19 ft | 26 kts | 2° |
| 2026-04-20 01:04 | 10.43699 | -75.51313 | 21 ft | 105 kts | 1° |
| 2026-04-20 01:04 | 10.44680 | -75.51266 | 36 ft | 172 kts | 4° |
| 2026-04-20 01:04 | 10.45838 | -75.51175 | 1075 ft | 155 kts | 4° |
| 2026-04-20 01:04 | 10.46641 | -75.51022 | 2293 ft | 118 kts | 17° |
| 2026-04-20 01:05 | 10.47663 | -75.50803 | 2088 ft | 186 kts | 2° |
| 2026-04-20 01:05 | 10.48992 | -75.50809 | 2964 ft | 186 kts | 8° |
| 2026-04-20 01:05 | 10.50038 | -75.50351 | 4144 ft | 164 kts | 32° |
| 2026-04-20 01:05 | 10.51102 | -75.49806 | 4703 ft | 179 kts | 28° |
| 2026-04-20 01:06 | 10.52001 | -75.48979 | 5431 ft | 182 kts | 64° |
| 2026-04-20 01:06 | 10.52097 | -75.47659 | 5952 ft | 199 kts | 100° |
| 2026-04-20 01:06 | 10.51646 | -75.46500 | 7239 ft | 166 kts | 127° |
| 2026-04-20 01:06 | 10.50709 | -75.45853 | 7679 ft | 185 kts | 165° |